Kezdőlap
METAR-TAF:

METAR-TAF

Repülőterek :

Torinói nemzetközi repülőtér

Torino, Olaszország

földrajzi szélesség: 45-13N, földrajzi hosszúság: 007-39E, magasság: 301 m

Jelenlegi meteorológiai megfigyelések

A jelentés 18 perccel ezelõtt készült, 00:20 UTC
Északnyugati szél 4 kt
Hőmérséklet 9°C
Páratartalom 61%
Légköri nyomás 1024 hPa
Látótávolság 10 km, vagy több

METAR: LIMF 050020Z AUTO 31004KT 9999 NCD 09/02 Q1024

Idő: 02:38 (00:38 UTC)

Előrejelzés

A jelentés 1 órával és 38 perccel ezelõtt készült, 23:00 UTC
Az előrejelzés 05-én 00 óra UTC és 05-én 24 óra UTC között érvényes
Különbözõ irányokból fújó szél 5 kt
Látótávolság 10 km, vagy több
felhőtlen 1500 m magasságban, és nincs gomolyfelhõ

TAF: LIMF 042300Z 0500/0524 VRB05KT CAVOK

Meteorológiai megfigyelések és előrejelzések több, mint 4000 repülőtéren (METAR és TAF jelentéseket).

A térképen piros és sárga pontok jelzik az elérhető meteorológiai állomásokat.

Mozgassa az egeret a pont fölött, hogy megjelenjen az állomás neve.

Azután kattintson az időjárási megfigyelések és előrejelzések megtekintéséhez.

A térkép megváltoztatása: kattintson a fekete keresztel jelölt zöld gombra ráközelítéshez, a vonallal jelölt zöld gombra távolításhoz, vagy a zöld nyilakra a szomszédos térképek eléréséhez.


METAR-TAF: